Time;durP1;ratioP1;P1;durP2;ratioP2;P2;SDS_P1;SDS_P2;PMS_P1;PMS_P2;Temp;Humidity;BMP_temperature;BMP_pressure;BME280_temperature;BME280_humidity;BME280_pressure;Samples;Min_cycle;Max_cycle;Signal;HPM_P1;HPM_P2
2021/11/11 00:00:20;;;;;;;26.05;16.15;;;;;;;11.34;96.24;100911.03;5034796;28;20376;-78
2021/11/11 00:02:47;;;;;;;20.75;15.50;;;;;;;11.23;97.15;100910.63;5035033;28;20051;-77
2021/11/11 00:05:14;;;;;;;20.30;14.98;;;;;;;11.32;96.81;100909.41;5034645;28;20051;-79
2021/11/11 00:07:41;;;;;;;23.23;15.00;;;;;;;11.18;97.69;100917.81;5034494;28;20400;-80
2021/11/11 00:10:10;;;;;;;19.35;15.05;;;;;;;11.45;96.02;100921.00;5034660;28;20111;-78
2021/11/11 00:12:37;;;;;;;19.05;13.90;;;;;;;11.64;94.56;100928.91;5034195;28;20053;-80
2021/11/11 00:15:10;;;;;;;19.67;14.88;;;;;;;11.72;94.43;100919.00;5034436;28;20052;-79
2021/11/11 00:17:38;;;;;;;23.92;15.52;;;;;;;11.77;94.05;100920.47;5034477;28;20065;-80
2021/11/11 00:20:07;;;;;;;23.85;16.80;;;;;;;11.69;94.28;100919.97;5033893;28;20041;-80
2021/11/11 00:22:34;;;;;;;26.05;16.70;;;;;;;11.45;95.41;100919.28;5034186;28;20053;-79
2021/11/11 00:25:03;;;;;;;23.30;16.05;;;;;;;11.36;96.53;100906.59;5033722;28;20044;-80
2021/11/11 00:27:30;;;;;;;27.02;15.70;;;;;;;11.26;96.24;100915.72;5033830;28;20345;-80
2021/11/11 00:29:57;;;;;;;22.48;16.38;;;;;;;11.41;94.61;100920.31;5033351;28;20049;-81
2021/11/11 00:32:24;;;;;;;17.98;14.52;;;;;;;11.67;93.25;100932.25;5032738;28;20044;-80
2021/11/11 00:34:54;;;;;;;20.13;15.32;;;;;;;11.64;93.09;100934.13;5032907;28;20398;-80
2021/11/11 00:37:22;;;;;;;19.40;14.57;;;;;;;11.76;93.11;100929.22;5032933;28;20049;-80
2021/11/11 00:39:50;;;;;;;20.70;16.55;;;;;;;11.77;92.89;100932.66;5033822;28;20049;-80
2021/11/11 00:42:18;;;;;;;20.55;15.05;;;;;;;11.74;93.29;100928.44;5033661;28;20050;-79
2021/11/11 00:44:46;;;;;;;19.10;14.68;;;;;;;11.73;92.69;100928.50;5032132;28;20562;-80
2021/11/11 00:47:15;;;;;;;19.00;14.15;;;;;;;11.48;93.07;100932.19;5033593;28;20049;-79
2021/11/11 00:49:42;;;;;;;21.92;15.25;;;;;;;11.47;93.80;100908.75;5033567;28;20476;-80
2021/11/11 00:52:09;;;;;;;16.88;13.50;;;;;;;11.54;92.47;100904.94;5031851;28;20038;-80
2021/11/11 00:54:36;;;;;;;23.63;15.10;;;;;;;11.43;93.28;100907.19;5032035;28;20042;-79
2021/11/11 00:57:07;;;;;;;18.30;14.75;;;;;;;11.59;92.68;100905.59;5032159;28;20049;-80
2021/11/11 00:59:34;;;;;;;21.17;14.93;;;;;;;11.61;93.46;100926.41;5031907;28;20042;-80
2021/11/11 01:02:07;;;;;;;25.67;15.30;;;;;;;11.44;95.85;100916.69;5033491;28;20492;-80
2021/11/11 01:04:37;;;;;;;19.55;14.80;;;;;;;11.47;97.15;100912.22;5033364;28;20046;-80
2021/11/11 01:07:05;;;;;;;26.05;15.07;;;;;;;11.65;95.35;100912.31;5032620;28;20095;-78
2021/11/11 01:09:32;;;;;;;20.63;15.07;;;;;;;11.67;94.31;100905.28;5031583;28;20049;-78
2021/11/11 01:12:00;;;;;;;18.00;14.85;;;;;;;11.57;95.17;100907.44;5032112;28;20079;-79
2021/11/11 01:14:26;;;;;;;19.95;14.35;;;;;;;11.54;96.46;100910.16;5032980;28;20041;-78
2021/11/11 01:16:53;;;;;;;18.98;14.48;;;;;;;11.59;95.00;100908.22;5033294;28;20045;-80
2021/11/11 01:19:21;;;;;;;19.58;15.40;;;;;;;11.52;93.96;100907.63;5033078;28;20499;-78
2021/11/11 01:21:49;;;;;;;20.52;13.63;;;;;;;11.50;95.95;100913.81;5020777;28;20512;-81
2021/11/11 01:24:16;;;;;;;17.42;13.43;;;;;;;11.55;97.17;100912.72;5033343;28;20037;-80
2021/11/11 01:26:47;;;;;;;16.65;13.70;;;;;;;11.53;97.03;100909.31;5032611;28;20049;-81
2021/11/11 01:29:14;;;;;;;20.00;13.52;;;;;;;11.57;96.72;100914.44;5031475;28;20042;-80
2021/11/11 01:31:42;;;;;;;19.42;13.63;;;;;;;11.62;96.00;100912.47;5031414;28;20128;-80
2021/11/11 01:34:12;;;;;;;18.13;13.43;;;;;;;11.49;96.42;100910.38;5031510;28;20408;-78
2021/11/11 01:36:40;;;;;;;18.50;14.43;;;;;;;11.61;95.68;100911.63;5031358;28;20549;-80
2021/11/11 01:39:12;;;;;;;17.65;13.82;;;;;;;11.53;96.17;100908.47;5032833;28;20104;-80
2021/11/11 01:41:51;;;;;;;18.38;12.07;;;;;;;11.51;96.53;100895.50;5031396;28;20132;-81
2021/11/11 01:44:20;;;;;;;16.48;12.65;;;;;;;11.54;96.22;100887.53;5031294;28;20220;-81
2021/11/11 01:46:48;;;;;;;21.15;14.57;;;;;;;11.46;96.31;100878.34;5029971;28;20052;-77
2021/11/11 01:49:18;;;;;;;18.23;12.27;;;;;;;11.58;95.75;100875.19;5030491;28;20037;-81
2021/11/11 01:51:48;;;;;;;18.58;13.23;;;;;;;11.43;96.66;100875.84;5031284;28;20419;-79
2021/11/11 01:54:18;;;;;;;19.73;14.57;;;;;;;11.34;97.41;100866.66;5030606;28;20053;-81
2021/11/11 01:56:47;;;;;;;20.45;14.38;;;;;;;11.37;98.06;100866.53;5031527;28;20042;-80
2021/11/11 01:59:27;;;;;;;17.83;12.05;;;;;;;11.29;100.00;100858.16;5030332;28;20045;-80
2021/11/11 02:01:59;;;;;;;20.52;12.80;;;;;;;11.47;98.76;100859.16;5031489;28;20407;-80
2021/11/11 02:04:33;;;;;;;17.52;12.27;;;;;;;11.47;97.11;100852.16;5031011;28;20041;-77
2021/11/11 02:07:02;;;;;;;16.83;12.50;;;;;;;11.55;95.50;100855.25;5031350;28;20129;-80
2021/11/11 02:09:38;;;;;;;19.83;13.43;;;;;;;11.64;93.39;100845.34;5030729;28;20044;-78
2021/11/11 02:12:12;;;;;;;21.08;14.93;;;;;;;11.63;92.91;100835.81;5031642;28;20069;-79
2021/11/11 02:14:44;;;;;;;18.63;13.98;;;;;;;11.65;92.91;100847.88;5031055;28;20042;-77
2021/11/11 02:17:12;;;;;;;17.52;12.68;;;;;;;11.31;96.97;100845.91;5031375;28;20523;-75
2021/11/11 02:20:10;;;;;;;17.08;12.57;;;;;;;11.51;97.64;100840.69;5030840;28;20149;-80
2021/11/11 02:22:59;;;;;;;20.10;12.82;;;;;;;11.51;97.08;100832.84;5033020;28;20083;-80
2021/11/11 02:25:46;;;;;;;15.68;12.02;;;;;;;11.45;98.38;100837.47;5031874;28;20041;-79
2021/11/11 02:28:17;;;;;;;20.98;12.90;;;;;;;11.42;99.33;100832.41;5030718;28;20052;-79
2021/11/11 02:30:48;;;;;;;17.27;12.52;;;;;;;11.37;98.66;100829.13;5030708;28;20132;-80
2021/11/11 02:33:21;;;;;;;21.55;14.50;;;;;;;11.47;97.17;100817.38;5031064;28;20084;-79
2021/11/11 02:35:49;;;;;;;18.17;13.45;;;;;;;11.53;95.41;100825.78;5014853;28;20136;-78
2021/11/11 02:38:17;;;;;;;22.83;13.38;;;;;;;11.27;97.44;100833.91;5030920;28;20140;-80
2021/11/11 02:40:45;;;;;;;21.75;13.85;;;;;;;11.50;95.43;100825.06;5031382;28;20053;-80
2021/11/11 02:43:13;;;;;;;16.17;12.07;;;;;;;11.43;96.43;100840.16;5030422;28;20045;-80
2021/11/11 02:45:44;;;;;;;17.92;13.02;;;;;;;11.44;95.86;100834.00;5030828;28;20128;-80
2021/11/11 02:48:13;;;;;;;20.80;13.63;;;;;;;11.52;95.82;100823.25;5030506;28;20060;-79
2021/11/11 02:50:46;;;;;;;19.50;14.25;;;;;;;11.65;94.86;100833.97;5030896;28;20166;-79
2021/11/11 02:53:12;;;;;;;24.02;14.75;;;;;;;11.60;95.09;100830.72;5034060;28;20054;-79
2021/11/11 02:55:42;;;;;;;20.27;13.32;;;;;;;11.33;97.21;100844.06;5034530;28;20053;-80
2021/11/11 02:58:09;;;;;;;21.40;13.75;;;;;;;11.25;99.10;100838.34;5034282;28;20072;-79
2021/11/11 03:00:41;;;;;;;21.80;14.07;;;;;;;11.44;97.09;100851.44;5034787;28;20061;-78
2021/11/11 03:03:11;;;;;;;21.38;14.82;;;;;;;11.41;98.05;100849.81;5034529;28;20150;-79
2021/11/11 03:05:38;;;;;;;19.05;14.00;;;;;;;11.43;98.08;100850.59;5035287;28;20045;-78
2021/11/11 03:08:09;;;;;;;24.35;14.18;;;;;;;11.53;97.50;100845.81;5034658;28;20521;-80
2021/11/11 03:10:44;;;;;;;22.67;14.70;;;;;;;11.45;94.97;100848.78;5034810;28;20084;-80
2021/11/11 03:13:13;;;;;;;27.63;17.98;;;;;;;11.54;93.33;100852.72;5035281;28;20125;-79
2021/11/11 03:15:42;;;;;;;28.30;21.65;;;;;;;11.43;93.47;100852.34;5033950;28;20450;-80
2021/11/11 03:18:11;;;;;;;32.72;22.23;;;;;;;11.53;93.33;100838.84;5034493;28;20087;-79
2021/11/11 03:20:40;;;;;;;29.38;22.65;;;;;;;11.52;93.86;100842.38;5035483;28;20353;-80
2021/11/11 03:23:09;;;;;;;34.50;21.88;;;;;;;11.57;94.31;100830.88;5034359;28;20087;-79
2021/11/11 03:25:37;;;;;;;35.03;21.77;;;;;;;11.41;96.14;100842.00;5034110;28;20048;-80
2021/11/11 03:28:05;;;;;;;31.85;21.10;;;;;;;11.60;95.36;100836.78;5035687;28;20103;-79
2021/11/11 03:30:33;;;;;;;33.97;20.98;;;;;;;11.37;96.45;100836.97;5035410;28;20435;-79
2021/11/11 03:33:04;;;;;;;30.98;22.08;;;;;;;11.40;95.84;100821.16;5034444;28;20049;-79
2021/11/11 03:35:37;;;;;;;33.55;23.00;;;;;;;11.35;96.10;100818.78;5034336;28;20063;-79
2021/11/11 03:38:08;;;;;;;29.92;21.00;;;;;;;11.30;96.15;100812.91;5033993;28;20045;-79
2021/11/11 03:40:40;;;;;;;29.90;21.50;;;;;;;11.36;96.49;100801.34;5032685;28;20045;-78
2021/11/11 03:43:11;;;;;;;35.15;22.95;;;;;;;11.22;97.61;100810.63;5017876;28;20921;-79
2021/11/11 03:45:45;;;;;;;29.33;21.33;;;;;;;11.17;99.33;100803.91;5013144;28;20056;-79
2021/11/11 03:48:12;;;;;;;27.05;20.05;;;;;;;11.16;99.93;100804.81;5033401;28;20051;-78
2021/11/11 03:50:41;;;;;;;33.22;22.83;;;;;;;10.81;100.00;100794.13;5033580;28;20033;-79
2021/11/11 03:53:11;;;;;;;33.03;21.23;;;;;;;10.93;100.00;100792.78;5033181;28;20045;-78
2021/11/11 03:55:39;;;;;;;27.83;18.33;;;;;;;10.75;100.00;100792.63;5033793;28;20046;-78
2021/11/11 03:58:10;;;;;;;27.10;18.08;;;;;;;10.89;100.00;100796.41;5033193;28;20082;-80
2021/11/11 04:00:37;;;;;;;28.58;19.08;;;;;;;10.78;100.00;100781.22;5033294;28;20049;-79
2021/11/11 04:03:04;;;;;;;23.85;17.55;;;;;;;10.82;100.00;100776.75;5033548;28;20042;-79
2021/11/11 04:05:32;;;;;;;26.75;17.27;;;;;;;11.14;100.00;100788.41;5032908;28;20117;-80
2021/11/11 04:07:59;;;;;;;27.63;18.23;;;;;;;10.91;100.00;100791.97;5033369;28;20487;-78
2021/11/11 04:10:27;;;;;;;24.33;16.52;;;;;;;11.03;100.00;100799.31;5033042;28;20076;-78
2021/11/11 04:13:13;;;;;;;24.73;17.67;;;;;;;10.90;100.00;100798.13;5028942;28;20041;-78
2021/11/11 04:15:40;;;;;;;23.55;17.30;;;;;;;10.80;100.00;100808.09;5034048;28;20072;-80
2021/11/11 04:18:07;;;;;;;28.15;19.50;;;;;;;10.62;100.00;100811.47;5032877;28;20073;-78
2021/11/11 04:20:34;;;;;;;28.75;19.55;;;;;;;10.74;100.00;100818.78;5032729;28;20045;-79
2021/11/11 04:23:02;;;;;;;29.95;18.48;;;;;;;10.88;100.00;100810.38;5032861;28;20099;-79
2021/11/11 04:25:42;;;;;;;26.67;18.30;;;;;;;10.84;100.00;100806.19;5032708;28;20045;-80
2021/11/11 04:28:16;;;;;;;36.15;18.63;;;;;;;10.89;100.00;100804.25;5034439;28;20052;-78
2021/11/11 04:30:46;;;;;;;22.60;17.30;;;;;;;10.79;100.00;100805.53;5032347;28;20055;-79
2021/11/11 04:33:14;;;;;;;22.27;15.88;;;;;;;10.71;100.00;100806.72;5032781;28;20296;-79
2021/11/11 04:35:46;;;;;;;25.45;15.55;;;;;;;10.84;100.00;100808.81;5034309;28;20043;-78
2021/11/11 05:04:29;;;;;;;21.95;15.27;;;;;;;10.81;100.00;100786.31;5031742;28;20052;-79
2021/11/11 05:07:03;;;;;;;22.63;16.70;;;;;;;10.85;100.00;100798.31;5031973;28;20088;-78
2021/11/11 05:09:31;;;;;;;22.50;15.85;;;;;;;11.00;100.00;100802.88;5031753;28;20540;-79
2021/11/11 05:11:59;;;;;;;27.95;15.88;;;;;;;11.00;100.00;100810.69;5031836;28;20049;-78
2021/11/11 05:14:28;;;;;;;22.90;16.45;;;;;;;10.96;100.00;100805.66;5030929;28;20049;-78
2021/11/11 05:16:55;;;;;;;22.17;16.67;;;;;;;10.96;100.00;100809.13;5033209;28;20037;-78
2021/11/11 05:19:22;;;;;;;26.02;16.63;;;;;;;11.00;100.00;100812.47;5031333;28;20099;-78
2021/11/11 05:21:49;;;;;;;21.70;16.00;;;;;;;10.98;100.00;100814.31;5031097;28;20140;-80
2021/11/11 05:24:16;;;;;;;27.15;16.88;;;;;;;10.89;100.00;100812.91;5031736;28;20078;-79
2021/11/11 05:26:46;;;;;;;24.42;16.55;;;;;;;11.02;100.00;100811.50;5031360;28;20047;-79
2021/11/11 05:29:13;;;;;;;23.98;16.75;;;;;;;11.07;100.00;100813.03;5031733;28;20395;-79
2021/11/11 05:31:40;;;;;;;23.70;17.88;;;;;;;10.91;100.00;100818.91;5031197;28;20136;-79
2021/11/11 05:34:07;;;;;;;24.02;16.92;;;;;;;11.06;100.00;100808.75;5031327;28;20045;-79
2021/11/11 05:36:37;;;;;;;24.05;16.83;;;;;;;10.90;100.00;100803.31;5031092;28;20068;-79
2021/11/11 05:39:04;;;;;;;22.58;17.65;;;;;;;10.48;100.00;100799.81;5031923;28;20049;-78
2021/11/11 05:41:33;;;;;;;25.75;17.35;;;;;;;10.86;100.00;100804.38;5031256;28;20455;-80
2021/11/11 05:44:00;;;;;;;25.58;16.95;;;;;;;10.94;100.00;100808.34;5031491;28;20457;-78
2021/11/11 05:46:30;;;;;;;23.00;18.00;;;;;;;11.04;100.00;100805.38;5033195;28;20065;-79
2021/11/11 05:48:57;;;;;;;22.65;18.05;;;;;;;11.20;100.00;100807.25;5031632;28;20063;-79
2021/11/11 05:51:25;;;;;;;23.27;17.00;;;;;;;11.22;100.00;100801.94;5032000;28;20052;-77
2021/11/11 05:53:52;;;;;;;20.73;17.52;;;;;;;11.09;100.00;100795.56;5032627;28;20087;-78
2021/11/11 05:56:22;;;;;;;25.23;19.50;;;;;;;11.08;100.00;100799.06;5031093;28;20060;-78
2021/11/11 05:58:49;;;;;;;23.02;17.40;;;;;;;11.16;100.00;100803.06;5031017;28;20056;-79
2021/11/11 06:01:18;;;;;;;19.63;16.50;;;;;;;11.18;100.00;100802.97;5032657;28;20059;-77
2021/11/11 06:03:47;;;;;;;28.05;18.85;;;;;;;11.01;100.00;100806.31;5031153;28;20041;-80
2021/11/11 06:06:16;;;;;;;28.15;17.38;;;;;;;11.05;100.00;100810.50;5031282;28;20073;-77
2021/11/11 06:08:43;;;;;;;26.40;17.95;;;;;;;11.08;100.00;100805.16;5032136;28;20125;-77
2021/11/11 06:11:11;;;;;;;25.40;18.08;;;;;;;10.89;100.00;100805.09;5031504;28;20442;-78
2021/11/11 06:13:38;;;;;;;28.35;18.38;;;;;;;10.94;100.00;100805.75;5032882;28;20124;-80
2021/11/11 06:16:06;;;;;;;22.85;18.98;;;;;;;10.74;100.00;100809.19;5031194;28;20045;-80
2021/11/11 06:18:33;;;;;;;24.48;19.58;;;;;;;10.69;100.00;100805.06;5032608;28;20400;-79
2021/11/11 06:21:00;;;;;;;26.05;19.90;;;;;;;10.88;100.00;100811.22;5032025;28;20069;-81
2021/11/11 06:23:35;;;;;;;28.23;18.67;;;;;;;10.74;100.00;100816.16;5031022;28;20448;-77
2021/11/11 06:26:04;;;;;;;23.77;18.52;;;;;;;10.99;100.00;100814.22;5028144;28;20090;-78
2021/11/11 06:28:35;;;;;;;31.70;22.88;;;;;;;11.15;100.00;100809.19;5034296;28;20065;-80
2021/11/11 06:31:03;;;;;;;30.65;22.50;;;;;;;10.96;100.00;100809.13;5033575;28;20408;-82
2021/11/11 06:33:32;;;;;;;27.30;21.20;;;;;;;11.09;100.00;100816.44;5033207;28;20484;-81
2021/11/11 06:35:59;;;;;;;33.50;22.05;;;;;;;11.21;100.00;100813.31;5032311;28;20384;-81
2021/11/11 06:38:26;;;;;;;39.85;25.65;;;;;;;11.04;100.00;100818.41;5029083;28;20558;-81
2021/11/11 06:40:54;;;;;;;32.95;21.17;;;;;;;11.06;100.00;100821.78;5033806;28;20447;-80
2021/11/11 06:43:21;;;;;;;29.35;19.80;;;;;;;11.02;100.00;100826.28;5031536;28;20041;-79
2021/11/11 06:45:48;;;;;;;23.17;18.70;;;;;;;11.00;100.00;100821.13;5030837;28;20079;-82
2021/11/11 06:48:16;;;;;;;32.30;17.58;;;;;;;11.11;100.00;100833.72;5032366;28;20049;-85
2021/11/11 06:50:44;;;;;;;22.50;17.40;;;;;;;10.88;100.00;100832.09;5027154;28;20092;-87
2021/11/11 06:53:13;;;;;;;26.75;18.42;;;;;;;10.90;100.00;100819.81;5030453;28;20037;-87
2021/11/11 06:55:42;;;;;;;23.00;17.92;;;;;;;10.98;100.00;100817.75;5033581;28;20117;-83
2021/11/11 06:58:17;;;;;;;27.13;19.23;;;;;;;11.21;100.00;100823.75;5028001;28;20041;-87
2021/11/11 07:00:45;;;;;;;25.42;17.88;;;;;;;10.94;100.00;100824.00;5014887;28;20091;-89
2021/11/11 07:03:14;;;;;;;28.75;20.23;;;;;;;11.10;100.00;100833.78;5034557;28;20068;-88
2021/11/11 07:05:44;;;;;;;27.27;19.80;;;;;;;11.27;98.73;100836.53;5030796;28;20048;-84
2021/11/11 07:08:13;;;;;;;26.40;19.95;;;;;;;11.31;96.19;100830.25;5027123;28;20049;-87
2021/11/11 07:10:44;;;;;;;28.10;20.38;;;;;;;11.33;96.23;100838.84;5031557;28;20047;-89
2021/11/11 07:13:11;;;;;;;30.48;21.08;;;;;;;11.17;95.86;100841.28;5033973;28;20411;-89
2021/11/11 07:15:40;;;;;;;31.50;21.63;;;;;;;11.25;96.18;100848.78;5031106;28;20231;-92
2021/11/11 07:18:10;;;;;;;37.03;26.95;;;;;;;11.08;97.22;100843.44;5033958;28;20037;-92
2021/11/11 07:20:40;;;;;;;26.60;20.02;;;;;;;10.84;99.13;100835.72;5033300;28;20042;-90
2021/11/11 07:23:07;;;;;;;26.45;19.58;;;;;;;11.04;98.60;100831.44;5030075;28;20117;-92
2021/11/11 07:25:34;;;;;;;26.83;19.13;;;;;;;11.22;97.04;100833.25;5034061;28;20037;-94
2021/11/11 07:28:01;;;;;;;29.67;20.00;;;;;;;11.06;97.56;100825.25;5029600;28;20045;-89
2021/11/11 07:30:28;;;;;;;27.10;20.13;;;;;;;10.93;98.91;100818.88;5029328;28;20046;-90
2021/11/11 07:32:56;;;;;;;29.38;19.00;;;;;;;10.99;99.53;100840.31;5028891;28;20087;-88
2021/11/11 07:35:24;;;;;;;26.00;19.33;;;;;;;11.14;100.00;100832.75;5023223;28;20053;-86
2021/11/11 07:37:52;;;;;;;29.08;19.35;;;;;;;11.15;99.40;100834.44;5030377;28;20033;-82
2021/11/11 07:40:23;;;;;;;28.13;21.90;;;;;;;11.10;98.99;100820.75;5029742;28;20049;-85
2021/11/11 07:42:50;;;;;;;58.33;35.80;;;;;;;11.23;98.28;100817.53;5016472;28;20045;-80
2021/11/11 07:45:23;;;;;;;57.65;36.58;;;;;;;11.28;97.41;100819.94;5029261;28;20056;-85
2021/11/11 07:47:54;;;;;;;56.63;37.17;;;;;;;11.44;97.20;100810.50;5042304;28;20095;-84
2021/11/11 07:50:33;;;;;;;;;;;;;;;11.41;99.79;100830.72;5024035;28;20376;-80
2021/11/11 07:53:01;;;;;;;42.17;25.67;;;;;;;11.64;96.10;100819.22;5033231;28;19921;-84
2021/11/11 07:55:29;;;;;;;26.88;20.35;;;;;;;11.50;96.24;100802.44;5031010;28;20045;-81
2021/11/11 07:57:57;;;;;;;25.95;18.70;;;;;;;11.41;96.58;100807.22;5034271;28;20050;-81
2021/11/11 08:00:24;;;;;;;25.73;20.33;;;;;;;11.70;96.41;100806.72;5032760;28;20045;-82
2021/11/11 08:02:51;;;;;;;36.70;26.92;;;;;;;11.44;96.42;100813.13;5021965;28;20034;-80
2021/11/11 08:05:19;;;;;;;33.97;24.20;;;;;;;11.66;95.76;100818.22;5031322;28;20034;-81
2021/11/11 08:07:48;;;;;;;36.47;24.23;;;;;;;11.80;93.54;100808.00;5034290;28;20044;-82
2021/11/11 08:10:20;;;;;;;30.52;20.10;;;;;;;11.44;98.17;100820.94;5027657;28;20040;-82
2021/11/11 08:12:47;;;;;;;27.52;21.50;;;;;;;11.76;98.41;100810.81;5022956;28;20045;-79
2021/11/11 08:15:15;;;;;;;24.75;17.73;;;;;;;11.70;97.08;100808.50;5031251;28;20055;-78
2021/11/11 08:17:44;;;;;;;26.17;17.88;;;;;;;11.54;99.13;100795.28;5030482;28;20487;-78
2021/11/11 08:20:13;;;;;;;25.77;17.80;;;;;;;11.70;97.27;100791.06;5028122;28;20056;-78
2021/11/11 08:22:41;;;;;;;24.08;19.13;;;;;;;12.12;96.13;100792.63;5038580;28;20038;-80
2021/11/11 08:25:10;;;;;;;23.92;17.48;;;;;;;11.92;97.13;100800.53;5039218;28;20194;-82
2021/11/11 08:27:38;;;;;;;27.83;19.80;;;;;;;11.90;98.22;100798.00;5035780;28;20030;-81
2021/11/11 08:30:08;;;;;;;24.63;18.25;;;;;;;11.89;97.50;100798.94;5032653;28;20111;-82
2021/11/11 08:32:41;;;;;;;20.70;16.35;;;;;;;11.46;99.88;100789.59;5029730;28;20122;-79
2021/11/11 08:35:08;;;;;;;26.77;18.92;;;;;;;11.62;98.65;100794.97;5032668;28;20091;-80
2021/11/11 08:37:36;;;;;;;28.08;17.55;;;;;;;11.82;97.49;100802.72;5033429;28;20446;-81
2021/11/11 08:40:04;;;;;;;25.52;16.80;;;;;;;11.88;95.97;100785.94;5033376;28;20075;-82
2021/11/11 08:42:32;;;;;;;22.20;15.07;;;;;;;11.88;95.84;100785.94;5033297;28;20076;-80
2021/11/11 08:44:59;;;;;;;27.50;18.77;;;;;;;11.67;96.38;100790.38;5031684;28;20037;-78
2021/11/11 08:47:28;;;;;;;37.38;20.95;;;;;;;11.73;96.25;100795.31;5031238;28;20041;-80
2021/11/11 08:49:58;;;;;;;28.17;17.23;;;;;;;11.68;95.91;100792.06;5027236;28;20486;-82
2021/11/11 08:52:25;;;;;;;26.08;16.27;;;;;;;11.94;97.44;100790.88;5030050;28;20049;-81
2021/11/11 08:54:53;;;;;;;18.13;13.77;;;;;;;11.66;96.99;100794.72;5023100;28;20041;-80
2021/11/11 08:57:20;;;;;;;20.65;15.30;;;;;;;11.93;95.35;100791.78;5021978;28;20089;-84
2021/11/11 09:00:05;;;;;;;22.13;15.88;;;;;;;12.16;94.37;100802.03;5009651;28;20037;-81
2021/11/11 09:02:34;;;;;;;20.88;14.70;;;;;;;12.21;93.20;100799.19;5030144;28;20045;-83
2021/11/11 09:05:01;;;;;;;20.35;13.70;;;;;;;12.23;93.83;100789.50;5028352;28;20041;-81
2021/11/11 09:07:29;;;;;;;21.88;15.40;;;;;;;12.26;93.21;100784.13;5026780;28;20046;-81
2021/11/11 09:09:56;;;;;;;21.45;15.40;;;;;;;12.65;91.51;100781.31;5028344;28;20037;-82
2021/11/11 09:12:23;;;;;;;21.52;15.02;;;;;;;12.41;91.81;100786.00;5029693;28;20063;-81
2021/11/11 09:14:50;;;;;;;25.05;15.88;;;;;;;12.48;90.42;100789.16;5028282;28;20053;-83
2021/11/11 09:17:17;;;;;;;24.33;16.08;;;;;;;12.57;90.17;100779.09;5031838;28;20045;-84
2021/11/11 09:19:43;;;;;;;24.52;17.40;;;;;;;12.59;89.30;100782.47;5027747;28;20067;-83
2021/11/11 09:22:10;;;;;;;24.20;15.75;;;;;;;12.58;89.81;100780.78;5026542;28;20041;-82
2021/11/11 09:24:38;;;;;;;21.98;15.10;;;;;;;12.77;87.97;100775.44;5030358;28;20041;-85
2021/11/11 09:27:06;;;;;;;20.58;14.35;;;;;;;12.66;89.24;100769.06;5027829;28;20069;-83
2021/11/11 09:29:33;;;;;;;25.15;14.27;;;;;;;12.41;88.27;100770.31;5016106;28;20073;-79
2021/11/11 09:32:00;;;;;;;22.25;14.23;;;;;;;12.40;89.31;100775.59;5014221;28;20132;-81
2021/11/11 09:34:27;;;;;;;23.48;13.80;;;;;;;12.72;85.52;100771.38;5029714;28;20049;-80
2021/11/11 09:36:54;;;;;;;20.67;13.25;;;;;;;12.73;86.08;100770.44;5030177;28;20038;-81
2021/11/11 09:39:22;;;;;;;23.25;15.38;;;;;;;12.77;86.03;100764.16;5030548;28;20045;-80
2021/11/11 09:41:51;;;;;;;23.58;13.48;;;;;;;13.05;85.69;100776.69;5029110;28;20080;-80
2021/11/11 09:44:24;;;;;;;20.85;15.73;;;;;;;12.86;86.17;100784.63;5024378;28;20048;-80
2021/11/11 09:46:53;;;;;;;21.00;15.32;;;;;;;12.90;87.11;100785.31;5026712;28;20124;-81
2021/11/11 09:49:21;;;;;;;18.67;13.38;;;;;;;12.84;86.29;100781.25;5030750;28;20057;-83
2021/11/11 09:51:49;;;;;;;20.60;14.02;;;;;;;12.45;88.59;100784.06;5028250;28;20044;-86
2021/11/11 09:59:33;;;;;;;17.17;13.65;;;;;;;12.29;92.66;100776.13;5023013;28;20042;-87
2021/11/11 10:02:00;;;;;;;21.95;14.27;;;;;;;12.34;92.57;100781.97;5019800;28;20184;-87
2021/11/11 10:04:30;;;;;;;20.95;15.27;;;;;;;12.43;92.68;100780.69;5029208;28;20053;-85
2021/11/11 10:06:57;;;;;;;20.13;15.13;;;;;;;12.40;91.50;100772.97;5023342;28;20043;-84
2021/11/11 10:09:25;;;;;;;20.15;13.10;;;;;;;12.35;89.69;100764.50;5028788;28;20450;-84
2021/11/11 10:11:58;;;;;;;30.58;13.75;;;;;;;12.50;88.93;100758.53;5021396;28;20072;-84
2021/11/11 10:14:30;;;;;;;21.23;14.47;;;;;;;12.70;87.53;100768.00;5016189;28;20045;-81
2021/11/11 10:17:05;;;;;;;23.98;14.38;;;;;;;12.53;88.93;100748.78;5028172;28;20053;-80
2021/11/11 10:19:34;;;;;;;20.15;12.70;;;;;;;12.63;88.49;100743.09;5027834;28;20037;-79
2021/11/11 10:22:16;;;;;;;18.42;10.95;;;;;;;12.41;87.65;100741.56;5025828;28;20060;-83
2021/11/11 10:25:05;;;;;;;16.70;11.30;;;;;;;12.75;85.87;100739.84;5029045;28;20050;-83
2021/11/11 10:27:47;;;;;;;17.10;11.77;;;;;;;12.56;85.92;100755.59;5029279;28;20037;-84
2021/11/11 10:30:22;;;;;;;15.57;12.15;;;;;;;12.48;86.25;100748.16;5028631;28;20046;-81
2021/11/11 10:33:15;;;;;;;15.30;10.35;;;;;;;12.61;83.94;100747.53;5025839;28;20411;-82
2021/11/11 10:35:44;;;;;;;16.80;11.85;;;;;;;12.35;85.33;100754.06;5016631;28;20054;-82
2021/11/11 10:38:18;;;;;;;13.93;11.13;;;;;;;12.72;84.07;100740.84;5026110;28;20049;-84
2021/11/11 10:40:49;;;;;;;14.73;10.80;;;;;;;12.58;84.40;100748.56;5024144;28;20045;-85
2021/11/11 10:43:24;;;;;;;13.07;10.18;;;;;;;12.50;84.86;100743.69;5023560;28;20794;-85
2021/11/11 10:45:53;;;;;;;14.55;10.25;;;;;;;12.38;85.44;100746.09;5029513;28;20104;-83
2021/11/11 10:48:25;;;;;;;20.95;10.65;;;;;;;12.41;85.05;100741.56;5028495;28;20045;-84
2021/11/11 10:50:56;;;;;;;16.17;12.00;;;;;;;12.23;85.30;100743.28;5028752;28;20478;-85
2021/11/11 10:53:27;;;;;;;16.58;10.65;;;;;;;12.30;85.62;100743.81;5028801;28;20099;-87
2021/11/11 10:56:00;;;;;;;17.65;11.20;;;;;;;12.41;84.79;100730.22;5029719;28;20056;-82
2021/11/11 10:58:30;;;;;;;17.20;11.90;;;;;;;12.21;86.35;100739.91;5027950;28;20492;-84
2021/11/11 11:01:01;;;;;;;28.63;12.57;;;;;;;12.45;85.36;100737.84;5030722;28;20041;-85
2021/11/11 11:03:33;;;;;;;18.48;13.07;;;;;;;12.17;87.14;100730.53;5025216;28;20041;-84
2021/11/11 11:06:02;;;;;;;15.20;12.82;;;;;;;12.19;87.46;100740.91;5041303;28;20037;-85
2021/11/11 11:08:34;;;;;;;16.05;11.85;;;;;;;12.31;84.78;100741.16;5029687;28;20072;-84
2021/11/11 11:11:03;;;;;;;22.83;14.32;;;;;;;12.46;83.05;100733.44;5028542;28;20056;-86
2021/11/11 11:13:36;;;;;;;21.08;13.27;;;;;;;12.21;82.59;100750.38;5035423;28;20049;-88
2021/11/11 11:16:12;;;;;;;19.30;12.50;;;;;;;12.27;81.95;100744.00;5034580;28;20041;-83
2021/11/11 11:18:42;;;;;;;20.00;13.77;;;;;;;12.39;82.27;100721.63;5033464;28;20056;-87
2021/11/11 11:21:21;;;;;;;20.10;13.75;;;;;;;12.42;81.78;100711.88;5030594;28;20045;-85
2021/11/11 11:23:54;;;;;;;17.73;13.57;;;;;;;12.66;81.21;100714.16;5034320;28;20376;-88
2021/11/11 11:26:22;;;;;;;24.43;14.23;;;;;;;12.73;80.86;100694.59;5031939;28;20046;-87
2021/11/11 11:31:49;;;;;;;26.95;13.93;;;;;;;12.96;79.60;100694.25;5028137;28;20041;-86
2021/11/11 11:34:19;;;;;;;20.80;13.60;;;;;;;13.20;79.73;100688.63;5026953;28;20053;-85
2021/11/11 11:37:07;;;;;;;23.48;15.07;;;;;;;12.88;80.12;100687.72;5020618;28;20041;-82
2021/11/11 11:39:45;;;;;;;22.08;14.80;;;;;;;12.77;81.51;100676.03;5029748;28;20132;-79
2021/11/11 11:42:19;;;;;;;24.58;16.45;;;;;;;13.36;79.13;100679.03;5025913;28;20459;-80
2021/11/11 11:44:52;;;;;;;18.88;14.57;;;;;;;13.69;77.29;100691.19;5034530;28;20045;-82
2021/11/11 11:47:50;;;;;;;26.83;16.83;;;;;;;13.74;75.81;100694.41;5034434;28;20048;-80
2021/11/11 11:50:21;;;;;;;20.27;15.65;;;;;;;13.70;75.87;100683.28;5029475;28;20053;-85
2021/11/11 11:52:58;;;;;;;25.10;18.83;;;;;;;13.68;77.03;100679.03;5032862;28;20103;-85